Aérodrome :
LOGIN :

S'inscrire | Disclaimer

   EN    FR    IT 

 










Légende :    VFR   VFR Marginal   IFR   IFR Intensif   IFR Très Intensif
Visi : 
Plafond : 
>= 8 km
>= 3000ft
5 à 8 km
1000 à 3000 ft
1500m à 5 km
500 à 1000 ft
800 à 1500m
200 à 500 ft
< 800m
< 200 ft
Symboles :   Orages  Brouillard  Fortes neiges  Fortes précipitations  Vent > 20 kt
SIGMETs :   Divers  Orages  Givrage  Turbulence  Onde Orograph.  Cendres Volcan.







- Altitude de l'aérodrome : 436 ft
- Code IATA : ANG
- Voir les cartes d'approche


LFBU - Angoulême Brie Champniers

DERNIER METAR :
  • 170230Z AUTO 19003KT CAVOK 06/05 Q1021

METARs EXPIRÉS :
  • 170200Z AUTO 19003KT 160V230 CAVOK 06/05 Q1021
  • 170130Z AUTO VRB02KT 9999 FEW027 06/05 Q1020
  • 170100Z AUTO 25004KT CAVOK 06/05 Q1020
  • 170030Z AUTO 23005KT 200V260 9999 FEW037 06/05 Q1020
  • 170000Z AUTO 23003KT 200V280 CAVOK 06/06 Q1019

TAF AMD TAF LFBU
Valide du 16 à 18h jusqu'au 17 à 18h UTC


161739Z 1618/1718 20006KT 9999 BKN020
TEMPO 1618/1702 24015G25KT 3000 SHRA BKN007 BKN014TCU
TEMPO 1702/1708 -SHRA
Pas de NOTAMs connus pour ce terrain.
1 SIGMET publié pour la FIR Bordeaux (LFBB) :
 
Turbulence forte
LFBB SIGMET 3 VALID 170000/170400 LFPW
LFBB BORDEAUX FIR/UIR SEV TURB FCST SE OF LINE N4330 E00245 - N4230 E00115 SFC/FL060 STNR NC=



MET'MAP, la Météo Aéronautique d'un coup d'oeil ! - Copyright ORBIFLY Décembre 2007 - Disclaimer

ORBIFLY MET'MAP TEAM :

Programmation & Développement : Alexandra Zaïnal
Conception & Développement : Baudouin d'Aumeries
Co-Programmation & Développement : Marc-Olivier Méhu
Soutien technique & logistique : Manuel Goepfert

Contact : metmap@orbifly.com




SOURCES & CREDITS :

   NOAA